logo tempoitalia

Diretta Meteo Dashoguz, Turkmenistanlunedì 31 agosto ore 10:00

Mappa
Sereno 22 °C Sereno 24 Ore: T.min 18 T.max 35
Ponente Nord/Nord-Est Km/h 18.5 Punto di rugiada: 1 °C Umidità: 24% Visibilità: 10 Km
Il sole sorge alle: 06:25 Il sole tramonta alle: 19:36
31 Agosto 2026 10:00 tempo osservato: Sereno Sereno 22 24 1017 vento: Nord N/NE 18.5
31 Agosto 2026 09:00 tempo osservato: Sereno Sereno 21 24 1016 vento: Nord NE 22.2
31 Agosto 2026 08:00 tempo osservato: Sereno Sereno 20 30 1016 vento: Nord N/NE 22.2
31 Agosto 2026 07:00 tempo osservato: Sereno Sereno 18 36 1016 vento: Nord N 14.8
31 Agosto 2026 06:00 tempo osservato: Sereno Sereno 19 37 1015 vento: Nord N/NE 14.8
31 Agosto 2026 05:00 tempo osservato: Sereno Sereno 20 34 1015 vento: Nord N/NE 14.8
31 Agosto 2026 04:00 tempo osservato: Sereno Sereno 21 32 1014 vento: Nord N/NE 18.5
31 Agosto 2026 03:00 tempo osservato: Sereno Sereno 22 32 1014 vento: Nord N/NE 18.5
31 Agosto 2026 02:00 tempo osservato: Sereno Sereno 23 31 1013 vento: Nord N/NE 22.2
31 Agosto 2026 01:00 tempo osservato: Sereno Sereno 24 31 1013 vento: Nord N/NE 18.5
31 Agosto 2026 00:00 tempo osservato: Sereno Sereno 25 31 1013 vento: Nord N/NE 18.5
30 Agosto 2026 23:00 tempo osservato: Sereno Sereno 26 34 1012 vento: Nord N/NE 18.5
30 Agosto 2026 22:00 tempo osservato: Sereno Sereno 27 34 1012 vento: Nord N 18.5
30 Agosto 2026 21:00 tempo osservato: Sereno Sereno 28 37 1011 vento: Nord N 18.5
30 Agosto 2026 20:00 tempo osservato: Sereno Sereno 30 37 1010 vento: Nord N 22.2
30 Agosto 2026 18:00 tempo osservato: Sereno Sereno 34 26 1009 vento: Nord N/NE 25.9
30 Agosto 2026 17:00 tempo osservato: Sereno Sereno 35 21 1010 vento: Nord N/NE 25.9
30 Agosto 2026 16:00 tempo osservato: Sereno Sereno 35 23 1010 vento: Nord N/NE 29.6
30 Agosto 2026 15:00 tempo osservato: Sereno Sereno 35 24 1010 vento: Nord N/NE 29.6
30 Agosto 2026 14:00 tempo osservato: Sereno Sereno 34 26 1010 vento: Nord N/NE 29.6
30 Agosto 2026 13:00 tempo osservato: Sereno Sereno 33 26 1010 vento: Nord N 25.9
30 Agosto 2026 12:00 tempo osservato: Sereno Sereno 32 27 1010 vento: Nord N 25.9
30 Agosto 2026 11:00 tempo osservato: Sereno Sereno 30 30 1010 vento: Nord N 25.9